sensor_id;sensor_type;location;lat;lon;timestamp;pressure;altitude;pressure_sealevel;temperature;humidity
55315;BME280;41619;42.816;23.226;2023-03-01T00:02:00;96030.91;;;5.60;72.11
55315;BME280;41619;42.816;23.226;2023-03-01T00:04:26;96012.69;;;5.60;72.28
55315;BME280;41619;42.816;23.226;2023-03-01T00:06:53;96019.38;;;5.63;72.32
55315;BME280;41619;42.816;23.226;2023-03-01T00:09:18;96009.66;;;5.62;71.82
55315;BME280;41619;42.816;23.226;2023-03-01T00:11:44;96014.28;;;5.61;72.34
55315;BME280;41619;42.816;23.226;2023-03-01T00:14:10;96013.97;;;5.63;72.29
55315;BME280;41619;42.816;23.226;2023-03-01T00:16:38;96017.78;;;5.62;71.91
55315;BME280;41619;42.816;23.226;2023-03-01T00:19:05;96005.34;;;5.61;72.24
55315;BME280;41619;42.816;23.226;2023-03-01T00:21:31;96008.06;;;5.61;71.55
55315;BME280;41619;42.816;23.226;2023-03-01T00:23:57;96005.66;;;5.59;71.85
55315;BME280;41619;42.816;23.226;2023-03-01T00:26:24;96002.63;;;5.61;71.67
55315;BME280;41619;42.816;23.226;2023-03-01T00:28:50;95998.00;;;5.61;71.68
55315;BME280;41619;42.816;23.226;2023-03-01T00:31:19;95991.75;;;5.61;72.02
55315;BME280;41619;42.816;23.226;2023-03-01T00:33:45;96000.69;;;5.61;72.08
55315;BME280;41619;42.816;23.226;2023-03-01T00:36:13;95988.72;;;5.62;71.43
55315;BME280;41619;42.816;23.226;2023-03-01T00:38:41;95988.72;;;5.62;72.11
55315;BME280;41619;42.816;23.226;2023-03-01T00:41:09;95985.22;;;5.62;71.63
55315;BME280;41619;42.816;23.226;2023-03-01T00:43:36;95976.28;;;5.61;71.66
55315;BME280;41619;42.816;23.226;2023-03-01T00:46:15;95973.56;;;5.61;72.30
55315;BME280;41619;42.816;23.226;2023-03-01T00:48:41;95975.94;;;5.63;71.69
55315;BME280;41619;42.816;23.226;2023-03-01T00:51:10;95979.13;;;5.65;72.13
55315;BME280;41619;42.816;23.226;2023-03-01T00:53:36;95986.16;;;5.66;71.91
55315;BME280;41619;42.816;23.226;2023-03-01T00:56:03;95981.19;;;5.68;71.64
55315;BME280;41619;42.816;23.226;2023-03-01T00:58:29;95978.50;;;5.68;71.99
55315;BME280;41619;42.816;23.226;2023-03-01T01:00:54;95980.88;;;5.69;71.32
55315;BME280;41619;42.816;23.226;2023-03-01T01:03:20;95978.50;;;5.68;71.73
55315;BME280;41619;42.816;23.226;2023-03-01T01:05:46;95978.34;;;5.64;71.85
55315;BME280;41619;42.816;23.226;2023-03-01T01:08:11;95983.28;;;5.62;71.82
55315;BME280;41619;42.816;23.226;2023-03-01T01:10:37;95991.75;;;5.61;71.40
55315;BME280;41619;42.816;23.226;2023-03-01T01:13:03;95986.94;;;5.58;71.05
55315;BME280;41619;42.816;23.226;2023-03-01T01:15:28;95984.88;;;5.55;71.50
55315;BME280;41619;42.816;23.226;2023-03-01T01:17:54;95988.88;;;5.48;71.09
55315;BME280;41619;42.816;23.226;2023-03-01T01:20:20;95989.53;;;5.45;70.73
55315;BME280;41619;42.816;23.226;2023-03-01T01:22:45;95993.19;;;5.41;70.42
55315;BME280;41619;42.816;23.226;2023-03-01T01:25:11;95994.59;;;5.38;70.78
55315;BME280;41619;42.816;23.226;2023-03-01T01:27:36;95998.13;;;5.39;70.79
55315;BME280;41619;42.816;23.226;2023-03-01T01:30:03;95998.13;;;5.39;71.11
55315;BME280;41619;42.816;23.226;2023-03-01T01:32:29;95995.41;;;5.39;71.62
55315;BME280;41619;42.816;23.226;2023-03-01T01:34:54;95989.50;;;5.37;70.75
55315;BME280;41619;42.816;23.226;2023-03-01T01:37:20;95998.75;;;5.36;71.12
55315;BME280;41619;42.816;23.226;2023-03-01T01:39:46;95994.44;;;5.35;70.87
55315;BME280;41619;42.816;23.226;2023-03-01T01:42:15;96002.13;;;5.33;71.17
55315;BME280;41619;42.816;23.226;2023-03-01T01:44:42;95998.59;;;5.32;71.66
55315;BME280;41619;42.816;23.226;2023-03-01T01:47:14;95999.41;;;5.33;71.14
55315;BME280;41619;42.816;23.226;2023-03-01T01:50:01;95985.84;;;5.33;71.29
55315;BME280;41619;42.816;23.226;2023-03-01T01:52:31;95991.91;;;5.30;71.40
55315;BME280;41619;42.816;23.226;2023-03-01T01:55:02;95990.63;;;5.27;71.26
55315;BME280;41619;42.816;23.226;2023-03-01T02:00:09;95991.44;;;5.28;71.28
55315;BME280;41619;42.816;23.226;2023-03-01T02:02:36;95996.38;;;5.26;71.03
55315;BME280;41619;42.816;23.226;2023-03-01T02:05:09;95993.97;;;5.24;70.96
55315;BME280;41619;42.816;23.226;2023-03-01T02:07:38;95989.34;;;5.25;71.10
55315;BME280;41619;42.816;23.226;2023-03-01T02:10:05;95987.75;;;5.24;71.24
55315;BME280;41619;42.816;23.226;2023-03-01T02:12:32;95985.03;;;5.24;71.16
55315;BME280;41619;42.816;23.226;2023-03-01T02:14:58;95980.72;;;5.23;71.05
55315;BME280;41619;42.816;23.226;2023-03-01T02:17:23;95975.31;;;5.23;71.01
55315;BME280;41619;42.816;23.226;2023-03-01T02:22:30;95974.81;;;5.21;70.98
55315;BME280;41619;42.816;23.226;2023-03-01T02:27:57;95967.50;;;5.21;71.01
55315;BME280;41619;42.816;23.226;2023-03-01T02:30:25;95967.50;;;5.21;71.21
55315;BME280;41619;42.816;23.226;2023-03-01T02:32:51;95965.25;;;5.23;71.04
55315;BME280;41619;42.816;23.226;2023-03-01T02:35:19;95959.50;;;5.25;71.35
55315;BME280;41619;42.816;23.226;2023-03-01T02:37:45;95959.19;;;5.26;71.53
55315;BME280;41619;42.816;23.226;2023-03-01T02:40:13;95972.75;;;5.26;70.78
55315;BME280;41619;42.816;23.226;2023-03-01T02:42:49;95969.25;;;5.26;70.70
55315;BME280;41619;42.816;23.226;2023-03-01T02:45:16;95967.16;;;5.23;70.90
55315;BME280;41619;42.816;23.226;2023-03-01T02:47:42;95968.28;;;5.22;71.03
55315;BME280;41619;42.816;23.226;2023-03-01T02:53:07;95958.84;;;5.19;70.91
55315;BME280;41619;42.816;23.226;2023-03-01T02:55:33;95961.88;;;5.17;70.78
55315;BME280;41619;42.816;23.226;2023-03-01T02:58:02;95971.13;;;5.16;71.13
55315;BME280;41619;42.816;23.226;2023-03-01T03:00:40;95972.56;;;5.14;71.32
55315;BME280;41619;42.816;23.226;2023-03-01T03:03:16;95966.66;;;5.12;70.88
55315;BME280;41619;42.816;23.226;2023-03-01T03:05:43;95963.16;;;5.11;70.77
55315;BME280;41619;42.816;23.226;2023-03-01T03:08:08;95967.78;;;5.11;71.19
55315;BME280;41619;42.816;23.226;2023-03-01T03:10:37;95964.59;;;5.09;70.82
55315;BME280;41619;42.816;23.226;2023-03-01T03:13:11;95966.03;;;5.06;70.88
55315;BME280;41619;42.816;23.226;2023-03-01T03:15:38;95962.84;;;5.04;70.97
55315;BME280;41619;42.816;23.226;2023-03-01T03:18:06;95968.56;;;5.03;71.34
55315;BME280;41619;42.816;23.226;2023-03-01T03:20:33;95978.63;;;5.02;71.13
55315;BME280;41619;42.816;23.226;2023-03-01T03:22:59;95980.03;;;5.00;71.24
55315;BME280;41619;42.816;23.226;2023-03-01T03:25:26;95976.22;;;5.01;71.47
55315;BME280;41619;42.816;23.226;2023-03-01T03:27:53;95982.75;;;5.00;71.16
55315;BME280;41619;42.816;23.226;2023-03-01T03:30:23;95986.59;;;4.99;71.49
55315;BME280;41619;42.816;23.226;2023-03-01T03:32:49;95982.75;;;5.00;71.31
55315;BME280;41619;42.816;23.226;2023-03-01T03:35:23;95984.34;;;5.01;71.55
55315;BME280;41619;42.816;23.226;2023-03-01T03:37:50;95985.78;;;4.98;71.31
55315;BME280;41619;42.816;23.226;2023-03-01T03:40:35;95981.78;;;4.96;71.70
55315;BME280;41619;42.816;23.226;2023-03-01T03:43:03;95991.03;;;4.95;71.47
55315;BME280;41619;42.816;23.226;2023-03-01T03:45:29;95999.03;;;4.91;71.95
55315;BME280;41619;42.816;23.226;2023-03-01T03:47:58;95995.50;;;4.91;71.84
55315;BME280;41619;42.816;23.226;2023-03-01T03:50:23;95999.34;;;4.90;71.85
55315;BME280;41619;42.816;23.226;2023-03-01T03:52:49;96003.66;;;4.91;71.60
55315;BME280;41619;42.816;23.226;2023-03-01T03:55:14;96009.88;;;4.91;71.73
55315;BME280;41619;42.816;23.226;2023-03-01T03:57:45;96007.16;;;4.91;71.40
55315;BME280;41619;42.816;23.226;2023-03-01T04:00:15;96001.41;;;4.93;71.66
55315;BME280;41619;42.816;23.226;2023-03-01T04:02:45;96001.09;;;4.94;71.59
55315;BME280;41619;42.816;23.226;2023-03-01T04:05:14;95996.63;;;4.90;71.66
55315;BME280;41619;42.816;23.226;2023-03-01T04:07:41;96000.47;;;4.89;71.23
55315;BME280;41619;42.816;23.226;2023-03-01T04:10:10;95998.06;;;4.87;71.34
55315;BME280;41619;42.816;23.226;2023-03-01T04:12:36;95997.59;;;4.85;71.59
55315;BME280;41619;42.816;23.226;2023-03-01T04:15:03;95998.38;;;4.85;71.45
55315;BME280;41619;42.816;23.226;2023-03-01T04:17:41;95998.38;;;4.85;71.70
55315;BME280;41619;42.816;23.226;2023-03-01T04:20:09;95997.59;;;4.85;71.61
55315;BME280;41619;42.816;23.226;2023-03-01T04:22:36;95992.16;;;4.85;70.98
55315;BME280;41619;42.816;23.226;2023-03-01T04:25:02;95987.53;;;4.85;70.90
55315;BME280;41619;42.816;23.226;2023-03-01T04:27:27;95988.66;;;4.84;71.50
55315;BME280;41619;42.816;23.226;2023-03-01T04:29:52;95991.34;;;4.84;71.49
55315;BME280;41619;42.816;23.226;2023-03-01T04:32:18;95991.16;;;4.81;71.08
55315;BME280;41619;42.816;23.226;2023-03-01T04:34:43;95989.09;;;4.78;71.31
55315;BME280;41619;42.816;23.226;2023-03-01T04:37:09;95980.94;;;4.78;71.30
55315;BME280;41619;42.816;23.226;2023-03-01T04:39:34;95987.00;;;4.75;71.11
55315;BME280;41619;42.816;23.226;2023-03-01T04:42:10;95993.88;;;4.72;71.16
55315;BME280;41619;42.816;23.226;2023-03-01T04:44:36;95989.56;;;4.71;71.40
55315;BME280;41619;42.816;23.226;2023-03-01T04:47:01;95992.28;;;4.71;71.10
55315;BME280;41619;42.816;23.226;2023-03-01T04:49:27;95977.91;;;4.71;71.54
55315;BME280;41619;42.816;23.226;2023-03-01T04:51:52;95973.94;;;4.68;71.57
55315;BME280;41619;42.816;23.226;2023-03-01T04:54:17;95970.41;;;4.68;71.56
55315;BME280;41619;42.816;23.226;2023-03-01T04:56:43;95984.28;;;4.66;71.32
55315;BME280;41619;42.816;23.226;2023-03-01T04:59:08;95984.56;;;4.65;71.50
55315;BME280;41619;42.816;23.226;2023-03-01T05:01:35;95985.69;;;4.64;71.33
55315;BME280;41619;42.816;23.226;2023-03-01T05:04:02;95986.00;;;4.62;71.71
55315;BME280;41619;42.816;23.226;2023-03-01T05:06:28;95991.75;;;4.61;71.51
55315;BME280;41619;42.816;23.226;2023-03-01T05:08:53;95987.44;;;4.60;71.55
55315;BME280;41619;42.816;23.226;2023-03-01T05:11:19;95985.84;;;4.59;71.40
55315;BME280;41619;42.816;23.226;2023-03-01T05:13:44;95983.94;;;4.59;71.20
55315;BME280;41619;42.816;23.226;2023-03-01T05:16:10;95990.16;;;4.60;72.11
55315;BME280;41619;42.816;23.226;2023-03-01T05:18:39;95984.72;;;4.60;72.13
55315;BME280;41619;42.816;23.226;2023-03-01T05:21:11;95986.31;;;4.61;71.77
55315;BME280;41619;42.816;23.226;2023-03-01T05:23:38;95986.63;;;4.59;71.21
55315;BME280;41619;42.816;23.226;2023-03-01T05:26:05;95997.78;;;4.57;71.77
55315;BME280;41619;42.816;23.226;2023-03-01T05:28:31;95994.28;;;4.57;71.76
55315;BME280;41619;42.816;23.226;2023-03-01T05:30:57;96004.66;;;4.55;71.09
55315;BME280;41619;42.816;23.226;2023-03-01T05:33:24;96008.00;;;4.52;70.95
55315;BME280;41619;42.816;23.226;2023-03-01T05:35:50;96006.06;;;4.52;71.56
55315;BME280;41619;42.816;23.226;2023-03-01T05:38:17;96006.06;;;4.52;71.26
55315;BME280;41619;42.816;23.226;2023-03-01T05:40:45;95999.53;;;4.53;71.68
55315;BME280;41619;42.816;23.226;2023-03-01T05:43:12;96005.44;;;4.55;71.40
55315;BME280;41619;42.816;23.226;2023-03-01T05:45:38;96011.19;;;4.54;71.64
55315;BME280;41619;42.816;23.226;2023-03-01T05:48:05;96011.66;;;4.56;71.12
55315;BME280;41619;42.816;23.226;2023-03-01T05:50:36;96011.66;;;4.56;71.49
55315;BME280;41619;42.816;23.226;2023-03-01T05:53:04;96020.59;;;4.56;71.71
55315;BME280;41619;42.816;23.226;2023-03-01T05:55:33;96021.09;;;4.59;71.05
55315;BME280;41619;42.816;23.226;2023-03-01T05:58:05;96028.91;;;4.60;71.30
55315;BME280;41619;42.816;23.226;2023-03-01T06:00:30;96027.78;;;4.61;71.43
55315;BME280;41619;42.816;23.226;2023-03-01T06:02:57;96030.97;;;4.63;71.34
55315;BME280;41619;42.816;23.226;2023-03-01T06:05:23;96036.72;;;4.62;71.05
55315;BME280;41619;42.816;23.226;2023-03-01T06:07:49;96042.44;;;4.60;70.87
55315;BME280;41619;42.816;23.226;2023-03-01T06:10:16;96033.22;;;4.61;70.72
55315;BME280;41619;42.816;23.226;2023-03-01T06:12:42;96042.34;;;4.65;71.08
55315;BME280;41619;42.816;23.226;2023-03-01T06:15:10;96039.78;;;4.69;71.25
55315;BME280;41619;42.816;23.226;2023-03-01T06:17:38;96041.06;;;4.71;71.18
55315;BME280;41619;42.816;23.226;2023-03-01T06:20:12;96047.63;;;4.70;70.76
55315;BME280;41619;42.816;23.226;2023-03-01T06:22:39;96047.63;;;4.70;70.44
55315;BME280;41619;42.816;23.226;2023-03-01T06:25:06;96049.53;;;4.70;70.25
55315;BME280;41619;42.816;23.226;2023-03-01T06:27:31;96052.25;;;4.70;70.60
55315;BME280;41619;42.816;23.226;2023-03-01T06:29:57;96044.41;;;4.68;70.43
55315;BME280;41619;42.816;23.226;2023-03-01T06:32:22;96048.72;;;4.69;70.68
55315;BME280;41619;42.816;23.226;2023-03-01T06:34:48;96050.31;;;4.70;70.59
55315;BME280;41619;42.816;23.226;2023-03-01T06:37:13;96056.22;;;4.72;70.43
55315;BME280;41619;42.816;23.226;2023-03-01T06:39:38;96050.97;;;4.76;70.14
55315;BME280;41619;42.816;23.226;2023-03-01T06:42:04;96051.28;;;4.74;70.22
55315;BME280;41619;42.816;23.226;2023-03-01T06:44:29;96053.69;;;4.76;70.65
55315;BME280;41619;42.816;23.226;2023-03-01T06:46:55;96051.47;;;4.78;70.21
55315;BME280;41619;42.816;23.226;2023-03-01T06:49:20;96052.75;;;4.80;70.60
55315;BME280;41619;42.816;23.226;2023-03-01T06:51:46;96047.00;;;4.82;70.03
55315;BME280;41619;42.816;23.226;2023-03-01T06:54:13;96049.72;;;4.82;70.04
55315;BME280;41619;42.816;23.226;2023-03-01T06:56:39;96044.81;;;4.84;69.92
55315;BME280;41619;42.816;23.226;2023-03-01T06:59:04;96050.72;;;4.86;70.09
55315;BME280;41619;42.816;23.226;2023-03-01T07:01:30;96040.66;;;4.86;69.96
55315;BME280;41619;42.816;23.226;2023-03-01T07:03:56;96057.56;;;4.92;70.03
55315;BME280;41619;42.816;23.226;2023-03-01T07:06:22;96051.53;;;4.95;70.14
55315;BME280;41619;42.816;23.226;2023-03-01T07:08:48;96047.38;;;4.98;69.76
55315;BME280;41619;42.816;23.226;2023-03-01T07:11:14;96047.06;;;4.99;70.06
55315;BME280;41619;42.816;23.226;2023-03-01T07:13:39;96048.34;;;5.02;69.91
55315;BME280;41619;42.816;23.226;2023-03-01T07:16:05;96036.09;;;5.04;70.04
55315;BME280;41619;42.816;23.226;2023-03-01T07:18:31;96040.88;;;5.07;69.93
55315;BME280;41619;42.816;23.226;2023-03-01T07:20:56;96036.72;;;5.10;69.48
55315;BME280;41619;42.816;23.226;2023-03-01T07:23:21;96036.09;;;5.13;69.84
55315;BME280;41619;42.816;23.226;2023-03-01T07:25:56;96034.97;;;5.14;69.27
55315;BME280;41619;42.816;23.226;2023-03-01T07:28:24;96029.22;;;5.15;69.79
55315;BME280;41619;42.816;23.226;2023-03-01T07:30:50;96036.41;;;5.20;69.08
55315;BME280;41619;42.816;23.226;2023-03-01T07:33:17;96032.28;;;5.23;69.53
55315;BME280;41619;42.816;23.226;2023-03-01T07:35:42;96033.41;;;5.22;69.30
55315;BME280;41619;42.816;23.226;2023-03-01T07:38:08;96027.97;;;5.22;69.28
55315;BME280;41619;42.816;23.226;2023-03-01T07:40:33;96027.66;;;5.23;68.65
55315;BME280;41619;42.816;23.226;2023-03-01T07:42:59;96033.56;;;5.25;68.78
55315;BME280;41619;42.816;23.226;2023-03-01T07:45:27;96036.75;;;5.27;69.46
55315;BME280;41619;42.816;23.226;2023-03-01T07:47:53;96033.41;;;5.30;69.31
55315;BME280;41619;42.816;23.226;2023-03-01T07:50:20;96027.19;;;5.30;68.36
55315;BME280;41619;42.816;23.226;2023-03-01T07:52:47;96032.63;;;5.30;68.64
55315;BME280;41619;42.816;23.226;2023-03-01T07:55:13;96026.53;;;5.33;68.49
55315;BME280;41619;42.816;23.226;2023-03-01T07:57:39;96026.22;;;5.34;69.13
55315;BME280;41619;42.816;23.226;2023-03-01T08:00:05;96020.16;;;5.37;68.52
55315;BME280;41619;42.816;23.226;2023-03-01T08:02:31;96015.38;;;5.43;69.24
55315;BME280;41619;42.816;23.226;2023-03-01T08:04:57;96019.06;;;5.47;68.61
55315;BME280;41619;42.816;23.226;2023-03-01T08:07:22;96020.19;;;5.46;68.44
55315;BME280;41619;42.816;23.226;2023-03-01T08:09:48;96019.38;;;5.45;68.38
55315;BME280;41619;42.816;23.226;2023-03-01T08:12:13;96018.25;;;5.46;68.48
55315;BME280;41619;42.816;23.226;2023-03-01T08:14:41;96016.03;;;5.48;68.54
55315;BME280;41619;42.816;23.226;2023-03-01T08:17:06;96022.88;;;5.55;68.75
55315;BME280;41619;42.816;23.226;2023-03-01T08:19:32;96009.97;;;5.60;69.18
55315;BME280;41619;42.816;23.226;2023-03-01T08:21:58;96005.66;;;5.68;68.69
55315;BME280;41619;42.816;23.226;2023-03-01T08:24:25;96003.56;;;5.73;68.78
55315;BME280;41619;42.816;23.226;2023-03-01T08:26:50;96014.44;;;5.82;68.87
55315;BME280;41619;42.816;23.226;2023-03-01T08:29:16;96013.13;;;5.88;68.58
55315;BME280;41619;42.816;23.226;2023-03-01T08:31:41;96009.16;;;5.94;68.28
55315;BME280;41619;42.816;23.226;2023-03-01T08:34:10;96004.38;;;6.00;68.07
55315;BME280;41619;42.816;23.226;2023-03-01T08:36:39;96001.34;;;6.01;68.37
55315;BME280;41619;42.816;23.226;2023-03-01T08:39:05;96001.34;;;6.01;67.83
55315;BME280;41619;42.816;23.226;2023-03-01T08:41:31;96004.84;;;6.02;67.71
55315;BME280;41619;42.816;23.226;2023-03-01T08:43:57;96003.72;;;6.03;68.02
55315;BME280;41619;42.816;23.226;2023-03-01T08:46:36;96005.00;;;6.05;68.08
55315;BME280;41619;42.816;23.226;2023-03-01T08:49:15;96004.34;;;6.08;68.29
55315;BME280;41619;42.816;23.226;2023-03-01T08:51:42;96011.22;;;6.15;67.60
55315;BME280;41619;42.816;23.226;2023-03-01T08:54:11;96009.44;;;6.19;67.82
55315;BME280;41619;42.816;23.226;2023-03-01T08:56:38;96012.47;;;6.26;67.37
55315;BME280;41619;42.816;23.226;2023-03-01T08:59:03;96010.53;;;6.35;68.31
55315;BME280;41619;42.816;23.226;2023-03-01T09:01:29;96005.56;;;6.37;67.81
55315;BME280;41619;42.816;23.226;2023-03-01T09:03:54;96002.53;;;6.38;67.72
55315;BME280;41619;42.816;23.226;2023-03-01T09:06:20;96001.53;;;6.43;68.01
55315;BME280;41619;42.816;23.226;2023-03-01T09:08:47;96011.91;;;6.50;68.35
55315;BME280;41619;42.816;23.226;2023-03-01T09:11:16;96009.69;;;6.52;68.01
55315;BME280;41619;42.816;23.226;2023-03-01T09:13:42;96005.19;;;6.56;68.33
55315;BME280;41619;42.816;23.226;2023-03-01T09:16:08;96004.19;;;6.60;68.17
55315;BME280;41619;42.816;23.226;2023-03-01T09:18:34;96010.25;;;6.66;68.28
55315;BME280;41619;42.816;23.226;2023-03-01T09:21:05;95997.75;;;6.74;68.18
55315;BME280;41619;42.816;23.226;2023-03-01T09:23:36;96005.25;;;6.77;68.12
55315;BME280;41619;42.816;23.226;2023-03-01T09:26:02;95997.22;;;6.80;68.13
55315;BME280;41619;42.816;23.226;2023-03-01T09:28:28;95998.63;;;6.86;68.14
55315;BME280;41619;42.816;23.226;2023-03-01T09:30:57;95993.63;;;6.97;67.79
55315;BME280;41619;42.816;23.226;2023-03-01T09:33:23;95996.78;;;7.08;68.16
55315;BME280;41619;42.816;23.226;2023-03-01T09:35:48;95998.50;;;7.12;67.76
55315;BME280;41619;42.816;23.226;2023-03-01T09:38:13;95988.22;;;7.18;68.02
55315;BME280;41619;42.816;23.226;2023-03-01T09:40:43;95988.47;;;7.25;67.68
55315;BME280;41619;42.816;23.226;2023-03-01T09:46:05;95979.59;;;7.37;67.85
55315;BME280;41619;42.816;23.226;2023-03-01T09:48:41;95978.59;;;7.41;67.83
55315;BME280;41619;42.816;23.226;2023-03-01T09:51:14;95980.19;;;7.42;67.28
55315;BME280;41619;42.816;23.226;2023-03-01T09:53:42;95979.88;;;7.44;67.90
55315;BME280;41619;42.816;23.226;2023-03-01T09:56:19;95980.69;;;7.44;67.58
55315;BME280;41619;42.816;23.226;2023-03-01T10:04:37;95969.34;;;7.75;67.02
55315;BME280;41619;42.816;23.226;2023-03-01T10:10:00;95963.09;;;8.08;67.07
55315;BME280;41619;42.816;23.226;2023-03-01T10:12:35;95963.00;;;8.16;66.36
55315;BME280;41619;42.816;23.226;2023-03-01T10:15:14;95959.69;;;8.11;66.00
55315;BME280;41619;42.816;23.226;2023-03-01T10:18:12;95961.06;;;8.05;65.81
55315;BME280;41619;42.816;23.226;2023-03-01T10:20:48;95956.19;;;8.10;65.61
55315;BME280;41619;42.816;23.226;2023-03-01T10:23:17;95953.78;;;8.09;65.46
55315;BME280;41619;42.816;23.226;2023-03-01T10:25:50;95944.94;;;8.12;65.38
55315;BME280;41619;42.816;23.226;2023-03-01T10:28:22;95950.72;;;8.10;65.61
55315;BME280;41619;42.816;23.226;2023-03-01T10:30:49;95950.84;;;8.14;65.75
55315;BME280;41619;42.816;23.226;2023-03-01T10:35:41;95951.63;;;8.14;65.19
55315;BME280;41619;42.816;23.226;2023-03-01T10:38:08;95948.44;;;8.00;65.75
55315;BME280;41619;42.816;23.226;2023-03-01T10:43:40;95951.13;;;7.88;66.08
55315;BME280;41619;42.816;23.226;2023-03-01T10:51:45;95937.16;;;7.89;65.75
55315;BME280;41619;42.816;23.226;2023-03-01T10:54:25;95927.28;;;7.97;65.58
55315;BME280;41619;42.816;23.226;2023-03-01T10:56:54;95930.63;;;8.03;65.94
55315;BME280;41619;42.816;23.226;2023-03-01T10:59:38;95932.97;;;7.92;65.30
55315;BME280;41619;42.816;23.226;2023-03-01T11:02:28;95928.06;;;7.85;65.66
55315;BME280;41619;42.816;23.226;2023-03-01T11:04:59;95916.25;;;7.81;65.91
55315;BME280;41619;42.816;23.226;2023-03-01T11:07:24;95920.75;;;7.77;65.76
55315;BME280;41619;42.816;23.226;2023-03-01T11:09:50;95923.38;;;7.74;65.61
55315;BME280;41619;42.816;23.226;2023-03-01T11:12:16;95919.16;;;7.64;65.72
55315;BME280;41619;42.816;23.226;2023-03-01T11:14:51;95922.06;;;7.59;66.39
55315;BME280;41619;42.816;23.226;2023-03-01T11:17:29;95916.16;;;7.57;66.06
55315;BME280;41619;42.816;23.226;2023-03-01T11:22:47;95916.47;;;7.55;66.91
55315;BME280;41619;42.816;23.226;2023-03-01T11:25:15;95917.56;;;7.42;65.94
55315;BME280;41619;42.816;23.226;2023-03-01T11:27:44;95919.44;;;7.29;66.61
55315;BME280;41619;42.816;23.226;2023-03-01T11:35:29;95918.16;;;7.06;66.82
55315;BME280;41619;42.816;23.226;2023-03-01T11:40:40;95909.59;;;6.95;67.47
55315;BME280;41619;42.816;23.226;2023-03-01T11:46:24;95897.81;;;6.83;67.75
55315;BME280;41619;42.816;23.226;2023-03-01T11:57:43;95881.00;;;7.10;67.54
55315;BME280;41619;42.816;23.226;2023-03-01T12:32:15;95860.78;;;7.32;67.93
55315;BME280;41619;42.816;23.226;2023-03-01T12:40:38;95860.97;;;7.48;66.87
55315;BME280;41619;42.816;23.226;2023-03-01T12:43:26;95850.88;;;7.60;66.99
55315;BME280;41619;42.816;23.226;2023-03-01T12:51:12;95858.06;;;7.65;66.57
55315;BME280;41619;42.816;23.226;2023-03-01T12:53:41;95856.50;;;7.64;65.93
55315;BME280;41619;42.816;23.226;2023-03-01T12:56:11;95849.56;;;7.67;66.38
55315;BME280;41619;42.816;23.226;2023-03-01T13:17:56;95858.19;;;7.69;65.70
55315;BME280;41619;42.816;23.226;2023-03-01T13:20:46;95853.09;;;7.67;66.09
55315;BME280;41619;42.816;23.226;2023-03-01T13:34:44;95855.53;;;7.60;66.63
55315;BME280;41619;42.816;23.226;2023-03-01T13:37:19;95865.97;;;7.58;66.41
55315;BME280;41619;42.816;23.226;2023-03-01T13:39:45;95858.81;;;7.53;66.13
55315;BME280;41619;42.816;23.226;2023-03-01T13:42:53;95864.69;;;7.43;66.58
55315;BME280;41619;42.816;23.226;2023-03-01T13:47:50;95852.53;;;7.41;66.67
55315;BME280;41619;42.816;23.226;2023-03-01T13:50:27;95856.38;;;7.40;66.57
55315;BME280;41619;42.816;23.226;2023-03-01T13:52:56;95862.16;;;7.38;67.12
55315;BME280;41619;42.816;23.226;2023-03-01T13:55:35;95849.56;;;7.34;66.87
55315;BME280;41619;42.816;23.226;2023-03-01T13:58:13;95862.38;;;7.33;66.73
55315;BME280;41619;42.816;23.226;2023-03-01T14:00:40;95856.81;;;7.29;67.21
55315;BME280;41619;42.816;23.226;2023-03-01T14:03:18;95856.88;;;7.21;66.96
55315;BME280;41619;42.816;23.226;2023-03-01T14:08:27;95855.38;;;7.11;67.12
55315;BME280;41619;42.816;23.226;2023-03-01T14:19:16;95845.41;;;7.15;67.46
55315;BME280;41619;42.816;23.226;2023-03-01T14:21:44;95847.91;;;7.20;67.16
55315;BME280;41619;42.816;23.226;2023-03-01T14:24:22;95846.09;;;7.24;67.03
55315;BME280;41619;42.816;23.226;2023-03-01T14:26:49;95840.81;;;7.28;66.85
55315;BME280;41619;42.816;23.226;2023-03-01T14:29:35;95849.44;;;7.30;66.94
55315;BME280;41619;42.816;23.226;2023-03-01T14:32:21;95847.97;;;7.33;67.19
55315;BME280;41619;42.816;23.226;2023-03-01T14:34:50;95848.44;;;7.35;66.85
55315;BME280;41619;42.816;23.226;2023-03-01T14:37:28;95844.00;;;7.30;66.90
55315;BME280;41619;42.816;23.226;2023-03-01T14:39:55;95841.47;;;7.25;67.59
55315;BME280;41619;42.816;23.226;2023-03-01T14:42:22;95845.31;;;7.24;67.30
55315;BME280;41619;42.816;23.226;2023-03-01T14:44:51;95850.31;;;7.22;67.89
55315;BME280;41619;42.816;23.226;2023-03-01T14:47:38;95833.84;;;7.18;67.62
55315;BME280;41619;42.816;23.226;2023-03-01T14:50:26;95834.19;;;7.17;68.21
55315;BME280;41619;42.816;23.226;2023-03-01T14:52:55;95834.72;;;7.10;67.52
55315;BME280;41619;42.816;23.226;2023-03-01T14:55:27;95830.75;;;7.08;68.12
55315;BME280;41619;42.816;23.226;2023-03-01T14:57:54;95827.09;;;7.04;68.20
55315;BME280;41619;42.816;23.226;2023-03-01T15:00:25;95818.78;;;7.00;68.23
55315;BME280;41619;42.816;23.226;2023-03-01T15:02:52;95825.25;;;6.95;68.79
55315;BME280;41619;42.816;23.226;2023-03-01T15:05:29;95815.69;;;6.89;68.79
55315;BME280;41619;42.816;23.226;2023-03-01T15:07:57;95815.09;;;6.84;69.26
55315;BME280;41619;42.816;23.226;2023-03-01T15:10:36;95822.66;;;6.78;69.19
55315;BME280;41619;42.816;23.226;2023-03-01T15:13:22;95814.69;;;6.73;69.37
55315;BME280;41619;42.816;23.226;2023-03-01T15:15:50;95817.28;;;6.70;69.35
55315;BME280;41619;42.816;23.226;2023-03-01T15:18:27;95816.00;;;6.67;69.72
55315;BME280;41619;42.816;23.226;2023-03-01T15:20:53;95812.50;;;6.66;69.58
55315;BME280;41619;42.816;23.226;2023-03-01T15:25:49;95823.56;;;6.61;69.55
55315;BME280;41619;42.816;23.226;2023-03-01T15:28:24;95822.97;;;6.56;70.08
55315;BME280;41619;42.816;23.226;2023-03-01T15:31:11;95838.38;;;6.52;70.27
55315;BME280;41619;42.816;23.226;2023-03-01T15:33:38;95840.94;;;6.48;70.07
55315;BME280;41619;42.816;23.226;2023-03-01T15:36:32;95828.00;;;6.45;70.18